sensor_id;sensor_type;location;lat;lon;timestamp;P1;durP1;ratioP1;P2;durP2;ratioP2
84623;SDS011;74849;51.340;12.610;2024-01-11T05:31:44;49.78;;;22.92;;
84623;SDS011;74849;51.340;12.610;2024-01-11T05:34:11;56.35;;;21.70;;
84623;SDS011;74849;51.340;12.610;2024-01-11T05:36:38;44.03;;;18.13;;
84623;SDS011;74849;51.340;12.610;2024-01-11T05:39:05;40.10;;;17.70;;
84623;SDS011;74849;51.340;12.610;2024-01-11T05:41:32;25.08;;;13.52;;
84623;SDS011;74849;51.340;12.610;2024-01-11T05:43:59;42.83;;;22.63;;
84623;SDS011;74849;51.340;12.610;2024-01-11T05:48:53;31.08;;;13.38;;
84623;SDS011;74849;51.340;12.610;2024-01-11T05:51:20;38.15;;;17.48;;
84623;SDS011;74849;51.340;12.610;2024-01-11T05:53:47;34.75;;;17.52;;
84623;SDS011;74849;51.340;12.610;2024-01-11T05:56:14;57.67;;;22.13;;
84623;SDS011;74849;51.340;12.610;2024-01-11T05:58:41;40.20;;;18.92;;
84623;SDS011;74849;51.340;12.610;2024-01-11T06:01:09;38.45;;;19.73;;
84623;SDS011;74849;51.340;12.610;2024-01-11T06:03:36;42.33;;;21.75;;
84623;SDS011;74849;51.340;12.610;2024-01-11T06:06:04;37.88;;;17.38;;
84623;SDS011;74849;51.340;12.610;2024-01-11T06:08:32;38.88;;;18.33;;
84623;SDS011;74849;51.340;12.610;2024-01-11T06:10:59;31.63;;;18.70;;
84623;SDS011;74849;51.340;12.610;2024-01-11T06:13:26;46.15;;;18.38;;
84623;SDS011;74849;51.340;12.610;2024-01-11T06:15:53;49.92;;;20.67;;
84623;SDS011;74849;51.340;12.610;2024-01-11T06:18:20;45.65;;;22.13;;
84623;SDS011;74849;51.340;12.610;2024-01-11T06:20:47;42.90;;;18.27;;
84623;SDS011;74849;51.340;12.610;2024-01-11T06:23:14;44.15;;;18.25;;
84623;SDS011;74849;51.340;12.610;2024-01-11T06:25:42;32.80;;;15.32;;
84623;SDS011;74849;51.340;12.610;2024-01-11T06:28:10;33.40;;;17.35;;
84623;SDS011;74849;51.340;12.610;2024-01-11T06:30:38;22.55;;;13.25;;
84623;SDS011;74849;51.340;12.610;2024-01-11T06:33:04;37.67;;;16.13;;
84623;SDS011;74849;51.340;12.610;2024-01-11T06:35:31;24.13;;;14.10;;
84623;SDS011;74849;51.340;12.610;2024-01-11T06:37:58;32.28;;;16.88;;
84623;SDS011;74849;51.340;12.610;2024-01-11T06:40:25;38.25;;;17.45;;
84623;SDS011;74849;51.340;12.610;2024-01-11T06:45:19;18.90;;;12.38;;
84623;SDS011;74849;51.340;12.610;2024-01-11T06:47:46;30.75;;;14.77;;
84623;SDS011;74849;51.340;12.610;2024-01-11T06:50:14;37.13;;;14.38;;
84623;SDS011;74849;51.340;12.610;2024-01-11T06:52:41;26.58;;;14.55;;
84623;SDS011;74849;51.340;12.610;2024-01-11T06:57:37;26.50;;;11.98;;
84623;SDS011;74849;51.340;12.610;2024-01-11T07:00:04;17.80;;;10.95;;
84623;SDS011;74849;51.340;12.610;2024-01-11T07:02:33;29.63;;;14.95;;
84623;SDS011;74849;51.340;12.610;2024-01-11T07:05:00;23.95;;;10.45;;
84623;SDS011;74849;51.340;12.610;2024-01-11T07:07:28;26.52;;;13.13;;
84623;SDS011;74849;51.340;12.610;2024-01-11T07:09:54;26.42;;;14.52;;
84623;SDS011;74849;51.340;12.610;2024-01-11T07:12:21;27.77;;;13.90;;
84623;SDS011;74849;51.340;12.610;2024-01-11T07:14:48;46.83;;;18.15;;
84623;SDS011;74849;51.340;12.610;2024-01-11T07:17:15;44.80;;;19.80;;
84623;SDS011;74849;51.340;12.610;2024-01-11T07:19:42;37.90;;;16.77;;
84623;SDS011;74849;51.340;12.610;2024-01-11T07:22:09;36.55;;;17.80;;
84623;SDS011;74849;51.340;12.610;2024-01-11T07:24:36;35.10;;;17.65;;
84623;SDS011;74849;51.340;12.610;2024-01-11T07:27:04;39.53;;;17.10;;
84623;SDS011;74849;51.340;12.610;2024-01-11T07:29:31;38.55;;;20.45;;
84623;SDS011;74849;51.340;12.610;2024-01-11T07:31:59;32.30;;;15.98;;
84623;SDS011;74849;51.340;12.610;2024-01-11T07:34:26;34.85;;;19.17;;
84623;SDS011;74849;51.340;12.610;2024-01-11T07:36:53;43.00;;;17.60;;
84623;SDS011;74849;51.340;12.610;2024-01-11T07:39:20;31.42;;;13.88;;
84623;SDS011;74849;51.340;12.610;2024-01-11T07:41:48;32.45;;;19.38;;
84623;SDS011;74849;51.340;12.610;2024-01-11T07:44:15;45.00;;;21.02;;
84623;SDS011;74849;51.340;12.610;2024-01-11T07:46:42;47.83;;;22.25;;
84623;SDS011;74849;51.340;12.610;2024-01-11T07:49:09;59.85;;;26.95;;
84623;SDS011;74849;51.340;12.610;2024-01-11T07:51:36;44.42;;;22.15;;
84623;SDS011;74849;51.340;12.610;2024-01-11T07:54:04;54.22;;;20.55;;
84623;SDS011;74849;51.340;12.610;2024-01-11T07:56:31;47.67;;;22.92;;
84623;SDS011;74849;51.340;12.610;2024-01-11T07:58:58;40.50;;;20.45;;
84623;SDS011;74849;51.340;12.610;2024-01-11T08:01:25;57.40;;;23.40;;
84623;SDS011;74849;51.340;12.610;2024-01-11T08:03:52;40.50;;;20.70;;
84623;SDS011;74849;51.340;12.610;2024-01-11T08:06:19;44.53;;;21.08;;
84623;SDS011;74849;51.340;12.610;2024-01-11T08:08:46;42.00;;;18.95;;
84623;SDS011;74849;51.340;12.610;2024-01-11T08:11:17;39.10;;;19.45;;
84623;SDS011;74849;51.340;12.610;2024-01-11T08:13:44;54.92;;;22.63;;
84623;SDS011;74849;51.340;12.610;2024-01-11T08:16:15;40.78;;;20.23;;
84623;SDS011;74849;51.340;12.610;2024-01-11T08:18:42;43.65;;;19.55;;
84623;SDS011;74849;51.340;12.610;2024-01-11T08:21:09;45.53;;;22.75;;
84623;SDS011;74849;51.340;12.610;2024-01-11T08:23:39;40.88;;;22.48;;
84623;SDS011;74849;51.340;12.610;2024-01-11T08:26:13;46.00;;;19.98;;
84623;SDS011;74849;51.340;12.610;2024-01-11T08:28:40;43.10;;;19.83;;
84623;SDS011;74849;51.340;12.610;2024-01-11T08:31:08;37.53;;;19.60;;
84623;SDS011;74849;51.340;12.610;2024-01-11T08:33:34;36.15;;;15.88;;
84623;SDS011;74849;51.340;12.610;2024-01-11T08:36:05;42.35;;;20.38;;
84623;SDS011;74849;51.340;12.610;2024-01-11T08:38:32;42.60;;;19.30;;
84623;SDS011;74849;51.340;12.610;2024-01-11T08:43:27;32.53;;;16.52;;
84623;SDS011;74849;51.340;12.610;2024-01-11T08:45:54;27.88;;;14.82;;
84623;SDS011;74849;51.340;12.610;2024-01-11T08:48:21;35.70;;;18.67;;
84623;SDS011;74849;51.340;12.610;2024-01-11T08:50:48;30.80;;;17.63;;
84623;SDS011;74849;51.340;12.610;2024-01-11T08:53:15;50.22;;;21.98;;
84623;SDS011;74849;51.340;12.610;2024-01-11T08:55:42;50.70;;;21.40;;
84623;SDS011;74849;51.340;12.610;2024-01-11T08:58:09;39.55;;;19.02;;
84623;SDS011;74849;51.340;12.610;2024-01-11T09:00:37;52.67;;;20.98;;
84623;SDS011;74849;51.340;12.610;2024-01-11T09:03:04;50.25;;;17.30;;
84623;SDS011;74849;51.340;12.610;2024-01-11T09:05:30;43.25;;;20.60;;
84623;SDS011;74849;51.340;12.610;2024-01-11T09:07:57;49.03;;;20.63;;
84623;SDS011;74849;51.340;12.610;2024-01-11T09:12:53;36.35;;;16.30;;
84623;SDS011;74849;51.340;12.610;2024-01-11T09:15:20;39.33;;;19.10;;
84623;SDS011;74849;51.340;12.610;2024-01-11T09:17:47;39.67;;;19.05;;
84623;SDS011;74849;51.340;12.610;2024-01-11T09:22:42;30.05;;;12.73;;
84623;SDS011;74849;51.340;12.610;2024-01-11T09:25:08;46.05;;;19.45;;
84623;SDS011;74849;51.340;12.610;2024-01-11T09:27:35;41.80;;;19.88;;
84623;SDS011;74849;51.340;12.610;2024-01-11T09:30:02;46.83;;;22.58;;
84623;SDS011;74849;51.340;12.610;2024-01-11T09:32:30;57.70;;;21.33;;
84623;SDS011;74849;51.340;12.610;2024-01-11T09:34:57;49.03;;;19.05;;
84623;SDS011;74849;51.340;12.610;2024-01-11T09:37:24;40.63;;;19.77;;
84623;SDS011;74849;51.340;12.610;2024-01-11T09:39:51;39.05;;;17.95;;
84623;SDS011;74849;51.340;12.610;2024-01-11T09:42:18;52.97;;;22.25;;
84623;SDS011;74849;51.340;12.610;2024-01-11T09:44:45;52.40;;;27.15;;
84623;SDS011;74849;51.340;12.610;2024-01-11T09:47:12;45.55;;;22.60;;
84623;SDS011;74849;51.340;12.610;2024-01-11T09:49:42;54.83;;;22.10;;
84623;SDS011;74849;51.340;12.610;2024-01-11T09:52:11;47.38;;;20.20;;
84623;SDS011;74849;51.340;12.610;2024-01-11T09:54:40;45.05;;;20.80;;
84623;SDS011;74849;51.340;12.610;2024-01-11T09:57:07;45.03;;;21.63;;
84623;SDS011;74849;51.340;12.610;2024-01-11T09:59:36;40.03;;;17.33;;
84623;SDS011;74849;51.340;12.610;2024-01-11T10:04:33;56.33;;;20.50;;
84623;SDS011;74849;51.340;12.610;2024-01-11T10:07:01;30.30;;;14.73;;
84623;SDS011;74849;51.340;12.610;2024-01-11T10:09:30;50.40;;;21.10;;
84623;SDS011;74849;51.340;12.610;2024-01-11T10:11:57;28.52;;;17.20;;
84623;SDS011;74849;51.340;12.610;2024-01-11T10:16:51;36.28;;;18.95;;
84623;SDS011;74849;51.340;12.610;2024-01-11T10:19:20;46.97;;;20.45;;
84623;SDS011;74849;51.340;12.610;2024-01-11T10:21:47;48.28;;;19.77;;
84623;SDS011;74849;51.340;12.610;2024-01-11T10:24:18;45.83;;;21.63;;
84623;SDS011;74849;51.340;12.610;2024-01-11T10:27:00;48.97;;;21.63;;
84623;SDS011;74849;51.340;12.610;2024-01-11T10:29:35;56.08;;;23.08;;
84623;SDS011;74849;51.340;12.610;2024-01-11T10:32:06;47.20;;;22.05;;
84623;SDS011;74849;51.340;12.610;2024-01-11T10:34:33;43.70;;;18.63;;
84623;SDS011;74849;51.340;12.610;2024-01-11T10:37:00;47.45;;;20.38;;
84623;SDS011;74849;51.340;12.610;2024-01-11T10:39:27;48.67;;;21.80;;
84623;SDS011;74849;51.340;12.610;2024-01-11T10:42:04;43.45;;;19.25;;
84623;SDS011;74849;51.340;12.610;2024-01-11T10:44:32;39.17;;;16.63;;
84623;SDS011;74849;51.340;12.610;2024-01-11T10:47:01;44.50;;;19.55;;
84623;SDS011;74849;51.340;12.610;2024-01-11T10:49:29;44.67;;;21.02;;
84623;SDS011;74849;51.340;12.610;2024-01-11T10:52:00;31.63;;;14.73;;
84623;SDS011;74849;51.340;12.610;2024-01-11T10:54:29;41.85;;;20.15;;
84623;SDS011;74849;51.340;12.610;2024-01-11T10:56:58;64.55;;;21.98;;
84623;SDS011;74849;51.340;12.610;2024-01-11T10:59:29;43.00;;;18.52;;
84623;SDS011;74849;51.340;12.610;2024-01-11T11:01:57;52.20;;;22.23;;
84623;SDS011;74849;51.340;12.610;2024-01-11T11:04:25;39.72;;;17.45;;
84623;SDS011;74849;51.340;12.610;2024-01-11T11:06:56;48.38;;;20.88;;
84623;SDS011;74849;51.340;12.610;2024-01-11T11:09:24;51.22;;;21.38;;
84623;SDS011;74849;51.340;12.610;2024-01-11T11:11:53;49.45;;;20.55;;
84623;SDS011;74849;51.340;12.610;2024-01-11T11:14:24;34.55;;;17.85;;
84623;SDS011;74849;51.340;12.610;2024-01-11T11:16:51;48.67;;;21.23;;
84623;SDS011;74849;51.340;12.610;2024-01-11T11:19:21;56.90;;;20.80;;
84623;SDS011;74849;51.340;12.610;2024-01-11T11:21:48;42.63;;;21.15;;
84623;SDS011;74849;51.340;12.610;2024-01-11T11:24:16;52.47;;;20.92;;
84623;SDS011;74849;51.340;12.610;2024-01-11T11:26:44;45.17;;;21.08;;
84623;SDS011;74849;51.340;12.610;2024-01-11T11:29:11;51.83;;;20.55;;
84623;SDS011;74849;51.340;12.610;2024-01-11T11:31:41;50.40;;;22.33;;
84623;SDS011;74849;51.340;12.610;2024-01-11T11:36:39;45.00;;;18.48;;
84623;SDS011;74849;51.340;12.610;2024-01-11T11:39:09;42.90;;;17.58;;
84623;SDS011;74849;51.340;12.610;2024-01-11T11:41:39;32.10;;;12.43;;
84623;SDS011;74849;51.340;12.610;2024-01-11T11:44:08;46.60;;;20.80;;
84623;SDS011;74849;51.340;12.610;2024-01-11T11:46:39;44.15;;;18.83;;
84623;SDS011;74849;51.340;12.610;2024-01-11T11:49:06;41.45;;;20.25;;
84623;SDS011;74849;51.340;12.610;2024-01-11T11:51:35;48.33;;;20.02;;
84623;SDS011;74849;51.340;12.610;2024-01-11T11:54:06;42.22;;;17.55;;
84623;SDS011;74849;51.340;12.610;2024-01-11T11:56:40;38.60;;;20.40;;
84623;SDS011;74849;51.340;12.610;2024-01-11T11:59:07;47.03;;;18.67;;
84623;SDS011;74849;51.340;12.610;2024-01-11T12:04:01;38.63;;;16.80;;
84623;SDS011;74849;51.340;12.610;2024-01-11T12:06:28;38.47;;;16.15;;
84623;SDS011;74849;51.340;12.610;2024-01-11T12:11:22;22.25;;;12.48;;
84623;SDS011;74849;51.340;12.610;2024-01-11T12:13:49;35.83;;;16.23;;
84623;SDS011;74849;51.340;12.610;2024-01-11T12:16:18;36.35;;;17.38;;
84623;SDS011;74849;51.340;12.610;2024-01-11T12:18:45;41.25;;;17.73;;
84623;SDS011;74849;51.340;12.610;2024-01-11T12:21:12;38.63;;;17.55;;
84623;SDS011;74849;51.340;12.610;2024-01-11T12:23:39;39.95;;;17.90;;
84623;SDS011;74849;51.340;12.610;2024-01-11T12:26:06;47.53;;;20.88;;
84623;SDS011;74849;51.340;12.610;2024-01-11T12:28:39;38.53;;;18.27;;
84623;SDS011;74849;51.340;12.610;2024-01-11T12:31:06;45.65;;;18.70;;
84623;SDS011;74849;51.340;12.610;2024-01-11T12:33:34;44.72;;;19.52;;
84623;SDS011;74849;51.340;12.610;2024-01-11T12:36:04;36.08;;;15.63;;
84623;SDS011;74849;51.340;12.610;2024-01-11T12:38:33;35.70;;;13.55;;
84623;SDS011;74849;51.340;12.610;2024-01-11T12:41:00;42.65;;;18.63;;
84623;SDS011;74849;51.340;12.610;2024-01-11T12:45:54;43.95;;;19.75;;
84623;SDS011;74849;51.340;12.610;2024-01-11T12:48:22;41.90;;;17.40;;
84623;SDS011;74849;51.340;12.610;2024-01-11T12:50:49;46.22;;;17.85;;
84623;SDS011;74849;51.340;12.610;2024-01-11T12:53:17;50.17;;;17.25;;
84623;SDS011;74849;51.340;12.610;2024-01-11T12:55:45;39.55;;;18.52;;
84623;SDS011;74849;51.340;12.610;2024-01-11T12:58:19;36.85;;;15.68;;
84623;SDS011;74849;51.340;12.610;2024-01-11T13:00:51;35.95;;;15.82;;
84623;SDS011;74849;51.340;12.610;2024-01-11T13:03:19;42.97;;;17.88;;
84623;SDS011;74849;51.340;12.610;2024-01-11T13:05:48;28.52;;;14.23;;
84623;SDS011;74849;51.340;12.610;2024-01-11T13:08:16;37.45;;;16.45;;
84623;SDS011;74849;51.340;12.610;2024-01-11T13:10:43;35.38;;;16.92;;
84623;SDS011;74849;51.340;12.610;2024-01-11T13:13:13;38.15;;;15.25;;
84623;SDS011;74849;51.340;12.610;2024-01-11T13:15:40;45.15;;;17.88;;
84623;SDS011;74849;51.340;12.610;2024-01-11T13:18:07;39.65;;;14.65;;
84623;SDS011;74849;51.340;12.610;2024-01-11T13:23:16;18.73;;;9.77;;
84623;SDS011;74849;51.340;12.610;2024-01-11T13:25:46;39.15;;;14.93;;
84623;SDS011;74849;51.340;12.610;2024-01-11T13:28:15;34.42;;;16.98;;
84623;SDS011;74849;51.340;12.610;2024-01-11T13:30:44;46.50;;;17.35;;
84623;SDS011;74849;51.340;12.610;2024-01-11T13:33:11;26.95;;;10.95;;
84623;SDS011;74849;51.340;12.610;2024-01-11T13:38:05;26.38;;;11.95;;
84623;SDS011;74849;51.340;12.610;2024-01-11T13:40:33;28.90;;;13.77;;
84623;SDS011;74849;51.340;12.610;2024-01-11T13:43:00;33.17;;;15.38;;
84623;SDS011;74849;51.340;12.610;2024-01-11T13:45:28;41.47;;;15.30;;
84623;SDS011;74849;51.340;12.610;2024-01-11T13:47:55;28.30;;;11.93;;
84623;SDS011;74849;51.340;12.610;2024-01-11T13:52:52;24.13;;;9.68;;
84623;SDS011;74849;51.340;12.610;2024-01-11T13:57:47;19.42;;;9.93;;
84623;SDS011;74849;51.340;12.610;2024-01-11T14:00:19;26.92;;;12.05;;
84623;SDS011;74849;51.340;12.610;2024-01-11T14:05:13;31.25;;;15.20;;
84623;SDS011;74849;51.340;12.610;2024-01-11T14:07:42;18.80;;;8.57;;
84623;SDS011;74849;51.340;12.610;2024-01-11T14:10:13;28.35;;;13.90;;
84623;SDS011;74849;51.340;12.610;2024-01-11T14:12:40;23.83;;;12.90;;
84623;SDS011;74849;51.340;12.610;2024-01-11T14:17:38;15.07;;;8.25;;
84623;SDS011;74849;51.340;12.610;2024-01-11T14:20:05;15.20;;;8.40;;
84623;SDS011;74849;51.340;12.610;2024-01-11T14:22:40;11.93;;;7.25;;
84623;SDS011;74849;51.340;12.610;2024-01-11T14:25:08;18.20;;;7.45;;
84623;SDS011;74849;51.340;12.610;2024-01-11T14:27:38;17.67;;;10.60;;
84623;SDS011;74849;51.340;12.610;2024-01-11T14:32:32;18.63;;;8.90;;
84623;SDS011;74849;51.340;12.610;2024-01-11T14:37:33;23.50;;;10.60;;
84623;SDS011;74849;51.340;12.610;2024-01-11T14:40:00;16.85;;;8.05;;
84623;SDS011;74849;51.340;12.610;2024-01-11T14:42:28;24.48;;;10.52;;
84623;SDS011;74849;51.340;12.610;2024-01-11T14:44:55;26.73;;;12.15;;
84623;SDS011;74849;51.340;12.610;2024-01-11T14:47:22;29.90;;;13.27;;
84623;SDS011;74849;51.340;12.610;2024-01-11T14:49:49;18.33;;;8.88;;
84623;SDS011;74849;51.340;12.610;2024-01-11T14:52:16;19.63;;;9.27;;
84623;SDS011;74849;51.340;12.610;2024-01-11T14:54:44;19.35;;;10.32;;
84623;SDS011;74849;51.340;12.610;2024-01-11T14:57:13;16.30;;;7.15;;
84623;SDS011;74849;51.340;12.610;2024-01-11T14:59:40;14.30;;;6.15;;
84623;SDS011;74849;51.340;12.610;2024-01-11T15:02:07;22.17;;;9.40;;
84623;SDS011;74849;51.340;12.610;2024-01-11T15:04:35;14.50;;;7.80;;
84623;SDS011;74849;51.340;12.610;2024-01-11T15:07:02;18.63;;;7.82;;
84623;SDS011;74849;51.340;12.610;2024-01-11T15:09:29;19.33;;;8.20;;
84623;SDS011;74849;51.340;12.610;2024-01-11T15:11:56;21.35;;;9.95;;
84623;SDS011;74849;51.340;12.610;2024-01-11T15:14:23;18.52;;;8.32;;
84623;SDS011;74849;51.340;12.610;2024-01-11T15:16:50;15.88;;;8.50;;
84623;SDS011;74849;51.340;12.610;2024-01-11T15:19:17;24.60;;;9.73;;
84623;SDS011;74849;51.340;12.610;2024-01-11T15:21:44;12.25;;;6.93;;
84623;SDS011;74849;51.340;12.610;2024-01-11T15:24:11;12.80;;;7.20;;
84623;SDS011;74849;51.340;12.610;2024-01-11T15:26:38;18.88;;;10.23;;
84623;SDS011;74849;51.340;12.610;2024-01-11T15:29:05;16.70;;;7.40;;
84623;SDS011;74849;51.340;12.610;2024-01-11T15:31:33;18.58;;;9.35;;
84623;SDS011;74849;51.340;12.610;2024-01-11T15:34:04;22.10;;;8.23;;
84623;SDS011;74849;51.340;12.610;2024-01-11T15:36:31;17.35;;;7.57;;
84623;SDS011;74849;51.340;12.610;2024-01-11T15:41:25;12.10;;;7.90;;
84623;SDS011;74849;51.340;12.610;2024-01-11T15:46:19;13.30;;;5.90;;
84623;SDS011;74849;51.340;12.610;2024-01-11T15:48:45;13.80;;;7.68;;
84623;SDS011;74849;51.340;12.610;2024-01-11T15:51:12;17.42;;;9.23;;
84623;SDS011;74849;51.340;12.610;2024-01-11T15:53:39;15.57;;;8.32;;
84623;SDS011;74849;51.340;12.610;2024-01-11T15:56:07;15.18;;;7.05;;
84623;SDS011;74849;51.340;12.610;2024-01-11T15:58:33;14.00;;;4.22;;
84623;SDS011;74849;51.340;12.610;2024-01-11T16:01:00;8.73;;;4.90;;
84623;SDS011;74849;51.340;12.610;2024-01-11T16:05:54;12.38;;;5.43;;
84623;SDS011;74849;51.340;12.610;2024-01-11T16:08:21;9.68;;;4.68;;
84623;SDS011;74849;51.340;12.610;2024-01-11T16:10:48;15.75;;;6.25;;
84623;SDS011;74849;51.340;12.610;2024-01-11T16:13:15;10.25;;;4.90;;
84623;SDS011;74849;51.340;12.610;2024-01-11T16:15:42;13.70;;;6.22;;
84623;SDS011;74849;51.340;12.610;2024-01-11T16:18:10;13.05;;;5.57;;
84623;SDS011;74849;51.340;12.610;2024-01-11T16:20:40;15.77;;;6.18;;
84623;SDS011;74849;51.340;12.610;2024-01-11T16:23:07;18.42;;;7.78;;
84623;SDS011;74849;51.340;12.610;2024-01-11T16:25:34;14.20;;;5.85;;
84623;SDS011;74849;51.340;12.610;2024-01-11T16:28:01;11.35;;;5.53;;
84623;SDS011;74849;51.340;12.610;2024-01-11T16:32:55;11.50;;;5.75;;
84623;SDS011;74849;51.340;12.610;2024-01-11T16:35:22;16.80;;;6.97;;
84623;SDS011;74849;51.340;12.610;2024-01-11T16:40:15;11.60;;;6.45;;
84623;SDS011;74849;51.340;12.610;2024-01-11T16:42:42;17.52;;;6.93;;
84623;SDS011;74849;51.340;12.610;2024-01-11T16:45:09;11.63;;;5.82;;
84623;SDS011;74849;51.340;12.610;2024-01-11T16:50:04;10.80;;;5.10;;
84623;SDS011;74849;51.340;12.610;2024-01-11T16:52:32;16.67;;;7.10;;
84623;SDS011;74849;51.340;12.610;2024-01-11T16:54:59;17.63;;;6.88;;
84623;SDS011;74849;51.340;12.610;2024-01-11T16:57:26;17.10;;;7.20;;
84623;SDS011;74849;51.340;12.610;2024-01-11T16:59:53;14.45;;;6.47;;
84623;SDS011;74849;51.340;12.610;2024-01-11T17:02:20;12.48;;;5.93;;
84623;SDS011;74849;51.340;12.610;2024-01-11T17:04:48;11.85;;;5.20;;
84623;SDS011;74849;51.340;12.610;2024-01-11T17:07:15;16.60;;;5.97;;
84623;SDS011;74849;51.340;12.610;2024-01-11T17:09:42;16.05;;;6.05;;
84623;SDS011;74849;51.340;12.610;2024-01-11T17:12:09;12.55;;;5.65;;
84623;SDS011;74849;51.340;12.610;2024-01-11T17:14:36;18.05;;;5.72;;
84623;SDS011;74849;51.340;12.610;2024-01-11T17:17:03;13.95;;;6.25;;
84623;SDS011;74849;51.340;12.610;2024-01-11T17:19:31;19.95;;;7.85;;
84623;SDS011;74849;51.340;12.610;2024-01-11T17:21:59;21.30;;;7.32;;
84623;SDS011;74849;51.340;12.610;2024-01-11T17:24:27;12.02;;;5.57;;
84623;SDS011;74849;51.340;12.610;2024-01-11T17:26:56;14.27;;;6.07;;
84623;SDS011;74849;51.340;12.610;2024-01-11T17:31:56;11.38;;;6.57;;
84623;SDS011;74849;51.340;12.610;2024-01-11T17:34:23;18.30;;;6.80;;
84623;SDS011;74849;51.340;12.610;2024-01-11T17:36:50;16.60;;;6.85;;
84623;SDS011;74849;51.340;12.610;2024-01-11T17:39:17;17.38;;;7.05;;
84623;SDS011;74849;51.340;12.610;2024-01-11T17:44:11;18.67;;;6.60;;
84623;SDS011;74849;51.340;12.610;2024-01-11T17:46:38;14.63;;;7.50;;
84623;SDS011;74849;51.340;12.610;2024-01-11T17:49:07;19.02;;;8.10;;
84623;SDS011;74849;51.340;12.610;2024-01-11T17:51:34;19.33;;;6.55;;
84623;SDS011;74849;51.340;12.610;2024-01-11T17:54:01;18.55;;;7.60;;
84623;SDS011;74849;51.340;12.610;2024-01-11T17:56:29;21.60;;;6.80;;
84623;SDS011;74849;51.340;12.610;2024-01-11T17:59:03;17.40;;;7.68;;
84623;SDS011;74849;51.340;12.610;2024-01-11T18:01:31;16.98;;;7.40;;
84623;SDS011;74849;51.340;12.610;2024-01-11T18:06:31;20.40;;;8.35;;
84623;SDS011;74849;51.340;12.610;2024-01-11T18:08:58;18.17;;;8.57;;
84623;SDS011;74849;51.340;12.610;2024-01-11T18:11:25;21.05;;;8.60;;
84623;SDS011;74849;51.340;12.610;2024-01-11T18:13:52;17.00;;;8.63;;
84623;SDS011;74849;51.340;12.610;2024-01-11T18:16:20;18.38;;;8.00;;
84623;SDS011;74849;51.340;12.610;2024-01-11T18:18:47;20.27;;;7.95;;
84623;SDS011;74849;51.340;12.610;2024-01-11T18:21:14;20.58;;;9.43;;
84623;SDS011;74849;51.340;12.610;2024-01-11T18:23:42;17.35;;;7.70;;
84623;SDS011;74849;51.340;12.610;2024-01-11T18:26:09;21.67;;;8.98;;
84623;SDS011;74849;51.340;12.610;2024-01-11T18:31:03;18.35;;;7.30;;
84623;SDS011;74849;51.340;12.610;2024-01-11T18:33:30;19.30;;;7.40;;
84623;SDS011;74849;51.340;12.610;2024-01-11T18:35:57;31.52;;;18.27;;
84623;SDS011;74849;51.340;12.610;2024-01-11T18:38:23;25.42;;;12.65;;
84623;SDS011;74849;51.340;12.610;2024-01-11T18:40:50;26.27;;;13.05;;
84623;SDS011;74849;51.340;12.610;2024-01-11T18:45:44;21.73;;;10.30;;
84623;SDS011;74849;51.340;12.610;2024-01-11T18:48:11;29.15;;;10.95;;
84623;SDS011;74849;51.340;12.610;2024-01-11T18:53:05;22.30;;;9.48;;
84623;SDS011;74849;51.340;12.610;2024-01-11T18:55:32;29.02;;;12.10;;
84623;SDS011;74849;51.340;12.610;2024-01-11T18:57:59;26.38;;;13.05;;
84623;SDS011;74849;51.340;12.610;2024-01-11T19:02:54;21.08;;;9.90;;
84623;SDS011;74849;51.340;12.610;2024-01-11T19:05:21;25.13;;;11.00;;
84623;SDS011;74849;51.340;12.610;2024-01-11T19:07:49;24.60;;;9.68;;
84623;SDS011;74849;51.340;12.610;2024-01-11T19:12:43;27.25;;;11.48;;
84623;SDS011;74849;51.340;12.610;2024-01-11T19:17:37;19.23;;;10.50;;
84623;SDS011;74849;51.340;12.610;2024-01-11T19:22:31;24.85;;;10.18;;
84623;SDS011;74849;51.340;12.610;2024-01-11T19:24:58;27.88;;;11.40;;
84623;SDS011;74849;51.340;12.610;2024-01-11T19:27:25;26.60;;;12.10;;
84623;SDS011;74849;51.340;12.610;2024-01-11T19:29:52;30.02;;;14.30;;
84623;SDS011;74849;51.340;12.610;2024-01-11T19:34:45;27.63;;;14.18;;
84623;SDS011;74849;51.340;12.610;2024-01-11T19:37:12;26.95;;;11.32;;
84623;SDS011;74849;51.340;12.610;2024-01-11T19:39:39;31.38;;;11.30;;
84623;SDS011;74849;51.340;12.610;2024-01-11T19:42:06;21.67;;;10.85;;
84623;SDS011;74849;51.340;12.610;2024-01-11T19:47:00;27.67;;;10.00;;
84623;SDS011;74849;51.340;12.610;2024-01-11T19:49:27;25.42;;;9.60;;
84623;SDS011;74849;51.340;12.610;2024-01-11T19:54:20;30.35;;;11.48;;
84623;SDS011;74849;51.340;12.610;2024-01-11T19:56:47;33.15;;;12.40;;
84623;SDS011;74849;51.340;12.610;2024-01-11T19:59:14;31.38;;;13.68;;
84623;SDS011;74849;51.340;12.610;2024-01-11T20:01:42;39.10;;;14.25;;
84623;SDS011;74849;51.340;12.610;2024-01-11T20:04:09;31.48;;;13.95;;
84623;SDS011;74849;51.340;12.610;2024-01-11T20:06:36;56.17;;;23.63;;
84623;SDS011;74849;51.340;12.610;2024-01-11T20:09:03;34.67;;;15.20;;
84623;SDS011;74849;51.340;12.610;2024-01-11T20:13:57;32.78;;;14.25;;
84623;SDS011;74849;51.340;12.610;2024-01-11T20:16:24;29.20;;;12.80;;
84623;SDS011;74849;51.340;12.610;2024-01-11T20:21:17;26.80;;;11.02;;
84623;SDS011;74849;51.340;12.610;2024-01-11T20:26:11;29.55;;;11.43;;
84623;SDS011;74849;51.340;12.610;2024-01-11T20:28:39;25.02;;;11.15;;
84623;SDS011;74849;51.340;12.610;2024-01-11T20:31:06;28.52;;;13.27;;
84623;SDS011;74849;51.340;12.610;2024-01-11T20:33:36;32.70;;;14.80;;
84623;SDS011;74849;51.340;12.610;2024-01-11T20:38:30;25.75;;;12.40;;
84623;SDS011;74849;51.340;12.610;2024-01-11T20:40:59;31.50;;;12.30;;
84623;SDS011;74849;51.340;12.610;2024-01-11T20:43:28;23.63;;;10.50;;
84623;SDS011;74849;51.340;12.610;2024-01-11T20:45:55;31.58;;;11.70;;
84623;SDS011;74849;51.340;12.610;2024-01-11T20:50:48;34.15;;;13.95;;
84623;SDS011;74849;51.340;12.610;2024-01-11T20:53:18;32.38;;;12.65;;
84623;SDS011;74849;51.340;12.610;2024-01-11T20:58:12;34.65;;;12.15;;
84623;SDS011;74849;51.340;12.610;2024-01-11T21:00:39;32.35;;;11.55;;
84623;SDS011;74849;51.340;12.610;2024-01-11T21:03:06;22.40;;;9.85;;
84623;SDS011;74849;51.340;12.610;2024-01-11T21:05:32;31.23;;;12.30;;
84623;SDS011;74849;51.340;12.610;2024-01-11T21:07:59;30.45;;;12.82;;
84623;SDS011;74849;51.340;12.610;2024-01-11T21:10:26;32.85;;;12.88;;
84623;SDS011;74849;51.340;12.610;2024-01-11T21:12:53;36.33;;;12.75;;
84623;SDS011;74849;51.340;12.610;2024-01-11T21:17:47;24.58;;;11.02;;
84623;SDS011;74849;51.340;12.610;2024-01-11T21:20:14;30.38;;;11.70;;
84623;SDS011;74849;51.340;12.610;2024-01-11T21:25:08;22.15;;;9.80;;
84623;SDS011;74849;51.340;12.610;2024-01-11T21:27:35;27.25;;;11.20;;
84623;SDS011;74849;51.340;12.610;2024-01-11T21:30:03;30.70;;;11.05;;
